Time;durP1;ratioP1;P1;durP2;ratioP2;P2;SDS_P1;SDS_P2;PMS_P1;PMS_P2;Temp;Humidity;BMP_temperature;BMP_pressure;BME280_temperature;BME280_humidity;BME280_pressure;Samples;Min_cycle;Max_cycle;Signal;HPM_P1;HPM_P2
2023/05/15 00:01:54;;;;;;;12.45;6.78;;;;;;;12.72;83.55;100629.09;5010123;28;20209;-76
2023/05/15 00:04:21;;;;;;;14.48;7.70;;;;;;;12.73;83.89;100633.47;4993827;28;20411;-75
2023/05/15 00:06:48;;;;;;;15.52;7.00;;;;;;;12.66;84.66;100627.97;4993478;28;20474;-76
2023/05/15 00:09:14;;;;;;;22.42;7.85;;;;;;;12.74;86.12;100619.00;4993791;28;20052;-76
2023/05/15 00:11:41;;;;;;;13.43;7.00;;;;;;;12.65;86.19;100618.19;4994072;28;20050;-76
2023/05/15 00:14:07;;;;;;;20.58;7.00;;;;;;;12.65;86.32;100605.56;4993568;28;20102;-76
2023/05/15 00:16:34;;;;;;;15.13;7.65;;;;;;;12.67;87.57;100605.41;4992732;28;20396;-75
2023/05/15 00:19:01;;;;;;;15.10;7.80;;;;;;;12.60;88.11;100599.06;4993183;28;20042;-76
2023/05/15 00:21:28;;;;;;;13.75;7.30;;;;;;;12.52;89.00;100594.56;4993344;28;20050;-75
2023/05/15 00:23:57;;;;;;;14.10;7.97;;;;;;;12.54;88.91;100591.69;4993292;28;20133;-77
2023/05/15 00:26:24;;;;;;;11.35;7.05;;;;;;;12.54;89.71;100584.44;4992961;28;20038;-77
2023/05/15 00:28:50;;;;;;;12.82;7.70;;;;;;;12.54;90.43;100589.00;4993298;28;20482;-75
2023/05/15 00:31:17;;;;;;;14.20;7.13;;;;;;;12.62;90.46;100580.88;4992366;28;20074;-75
2023/05/15 00:33:43;;;;;;;17.98;7.45;;;;;;;12.54;91.20;100581.75;4994119;28;20557;-76
2023/05/15 00:36:10;;;;;;;14.07;8.25;;;;;;;12.51;92.08;100586.66;4993283;28;20057;-75
2023/05/15 00:38:37;;;;;;;15.63;7.60;;;;;;;12.34;94.52;100581.34;4992739;28;20049;-75
2023/05/15 00:41:05;;;;;;;15.10;7.55;;;;;;;12.40;95.45;100579.81;4993866;28;20097;-75
2023/05/15 00:43:33;;;;;;;16.48;8.35;;;;;;;12.36;95.56;100571.25;4993585;28;20050;-73
2023/05/15 00:46:01;;;;;;;11.65;8.10;;;;;;;12.31;96.44;100573.63;4992415;28;20042;-76
2023/05/15 00:48:28;;;;;;;16.10;7.97;;;;;;;12.15;99.39;100571.03;4992446;28;20077;-75
2023/05/15 00:50:56;;;;;;;17.20;7.68;;;;;;;12.21;98.83;100562.28;4992733;28;20066;-77
2023/05/15 00:53:23;;;;;;;21.45;8.80;;;;;;;12.16;100.00;100564.63;4992021;28;20081;-76
2023/05/15 00:55:51;;;;;;;15.88;8.30;;;;;;;12.12;100.00;100566.84;4992843;28;20054;-74
2023/05/15 00:58:20;;;;;;;14.80;8.27;;;;;;;12.04;100.00;100560.66;4993410;28;20064;-74
2023/05/15 01:00:48;;;;;;;16.38;7.93;;;;;;;11.97;100.00;100559.66;4993159;28;20054;-72
2023/05/15 01:03:16;;;;;;;13.50;7.78;;;;;;;11.83;100.00;100566.56;5007827;28;20042;-75
2023/05/15 01:09:31;;;;;;;15.30;8.57;;;;;;;11.85;100.00;100549.28;4991093;28;20084;-75
2023/05/15 01:11:59;;;;;;;16.25;8.25;;;;;;;11.94;100.00;100552.78;4991669;28;20057;-74
2023/05/15 01:14:26;;;;;;;13.98;8.23;;;;;;;11.83;100.00;100550.44;4998019;28;20101;-78
2023/05/15 01:16:52;;;;;;;13.75;8.30;;;;;;;11.80;100.00;100554.34;4992463;28;20077;-74
2023/05/15 01:19:19;;;;;;;12.23;7.57;;;;;;;11.80;100.00;100540.91;4991878;28;20050;-76
2023/05/15 01:22:07;;;;;;;20.55;9.95;;;;;;;11.75;100.00;100547.78;4992475;28;20104;-76
2023/05/15 01:24:49;;;;;;;15.43;8.38;;;;;;;11.63;100.00;100542.75;4991015;28;20050;-70
2023/05/15 01:27:26;;;;;;;;;;;;;;;11.69;100.00;100544.81;4992669;28;20137;-70
2023/05/15 01:30:06;;;;;;;16.70;8.30;;;;;;;11.61;100.00;100535.88;4991396;28;19921;-70
2023/05/15 01:33:29;;;;;;;15.77;7.90;;;;;;;11.46;100.00;100536.59;4991629;28;20046;-71
2023/05/15 01:36:20;;;;;;;19.50;8.13;;;;;;;11.48;100.00;100538.25;4930869;29;20067;-70
2023/05/15 01:38:54;;;;;;;13.82;8.15;;;;;;;11.40;100.00;100550.69;4932358;29;20043;-70
2023/05/15 01:41:27;;;;;;;13.52;7.55;;;;;;;11.37;100.00;100550.19;4930766;29;20052;-70
2023/05/15 01:44:05;;;;;;;12.98;7.82;;;;;;;11.37;100.00;100542.97;4931514;29;20094;-71
2023/05/15 01:46:35;;;;;;;14.73;8.38;;;;;;;11.31;100.00;100537.44;4928863;28;20130;-73
2023/05/15 01:49:02;;;;;;;17.30;8.75;;;;;;;11.38;100.00;100533.91;4930897;29;20119;-73
2023/05/15 01:51:30;;;;;;;16.30;8.05;;;;;;;11.33;100.00;100530.88;4930788;29;20530;-73
2023/05/15 01:53:58;;;;;;;13.00;8.18;;;;;;;11.34;100.00;100532.56;4931539;29;20051;-74
2023/05/15 01:56:26;;;;;;;15.65;8.40;;;;;;;11.25;100.00;100517.47;4930219;29;20052;-73
2023/05/15 01:58:54;;;;;;;14.45;8.80;;;;;;;11.19;100.00;100521.66;4931597;29;20047;-73
2023/05/15 02:01:22;;;;;;;13.45;9.00;;;;;;;11.21;100.00;100516.16;4932120;29;20056;-70
2023/05/15 02:03:49;;;;;;;19.10;9.30;;;;;;;11.32;100.00;100517.63;4950602;29;20051;-69
2023/05/15 02:06:16;;;;;;;14.60;8.85;;;;;;;11.41;100.00;100514.78;4962853;28;20058;-70
2023/05/15 02:08:45;;;;;;;18.58;9.30;;;;;;;11.35;100.00;100517.31;4990129;28;20050;-69
2023/05/15 02:11:12;;;;;;;16.25;9.35;;;;;;;11.30;100.00;100515.09;4989703;28;20050;-68
2023/05/15 02:13:39;;;;;;;15.13;8.10;;;;;;;11.20;100.00;100507.22;4991506;28;20125;-70
2023/05/15 02:16:06;;;;;;;16.88;8.48;;;;;;;11.21;100.00;100514.28;4990166;28;20043;-75
2023/05/15 02:18:33;;;;;;;14.07;8.95;;;;;;;11.26;100.00;100519.16;4991533;28;20054;-77
2023/05/15 02:21:02;;;;;;;17.58;8.18;;;;;;;11.27;100.00;100511.94;4990162;28;20097;-74
2023/05/15 02:23:28;;;;;;;17.08;9.30;;;;;;;11.17;100.00;100510.28;4991485;28;20061;-70
2023/05/15 02:26:09;;;;;;;14.73;8.13;;;;;;;11.28;100.00;100506.41;4990757;28;20487;-70
2023/05/15 02:28:46;;;;;;;16.45;9.00;;;;;;;11.19;100.00;100494.81;4990383;28;20066;-70
2023/05/15 02:31:39;;;;;;;16.50;9.07;;;;;;;11.06;100.00;100496.34;4990512;28;20414;-69
2023/05/15 02:34:22;;;;;;;15.07;8.82;;;;;;;10.96;100.00;100494.69;4990502;28;20546;-69
2023/05/15 02:36:51;;;;;;;26.65;8.93;;;;;;;10.91;100.00;100491.66;4990860;28;20129;-70
2023/05/15 02:39:22;;;;;;;16.95;9.07;;;;;;;10.92;100.00;100485.28;4991377;28;20050;-69
2023/05/15 02:41:51;;;;;;;12.90;8.65;;;;;;;10.93;100.00;100481.59;4992123;28;20046;-69
2023/05/15 02:44:18;;;;;;;18.60;9.45;;;;;;;10.92;100.00;100477.22;4992960;28;20054;-68
2023/05/15 02:46:47;;;;;;;14.65;9.00;;;;;;;10.92;100.00;100479.91;4991951;28;20058;-69
2023/05/15 02:49:14;;;;;;;12.70;8.25;;;;;;;10.81;100.00;100476.72;4992091;28;20487;-68
2023/05/15 02:51:40;;;;;;;13.95;8.55;;;;;;;10.82;100.00;100473.03;4991046;28;20441;-68
2023/05/15 02:54:08;;;;;;;19.88;8.60;;;;;;;10.71;100.00;100474.22;4989395;28;20053;-68
2023/05/15 02:56:35;;;;;;;15.90;8.85;;;;;;;10.65;100.00;100469.50;4990109;28;20070;-68
2023/05/15 02:59:01;;;;;;;16.50;9.43;;;;;;;10.64;100.00;100465.97;4990616;28;20048;-68
2023/05/15 03:01:28;;;;;;;15.38;8.43;;;;;;;10.74;100.00;100468.50;4990897;28;20554;-68
2023/05/15 03:03:54;;;;;;;18.00;8.15;;;;;;;10.76;100.00;100465.69;4989041;28;20049;-71
2023/05/15 03:06:21;;;;;;;13.55;8.27;;;;;;;10.71;100.00;100475.03;4990356;28;20054;-67
2023/05/15 03:08:47;;;;;;;17.25;8.82;;;;;;;10.65;100.00;100469.50;4989751;28;20050;-70
2023/05/15 03:11:14;;;;;;;16.33;8.35;;;;;;;10.75;100.00;100470.19;4990492;28;20053;-68
2023/05/15 03:13:40;;;;;;;16.45;9.30;;;;;;;10.66;100.00;100455.09;4990228;28;20399;-68
2023/05/15 03:16:07;;;;;;;13.25;8.35;;;;;;;10.61;100.00;100462.78;4991370;28;20129;-67
2023/05/15 03:18:33;;;;;;;15.73;9.00;;;;;;;10.68;100.00;100469.16;4990676;28;20046;-68
2023/05/15 03:21:00;;;;;;;22.92;9.63;;;;;;;10.69;100.00;100460.97;4990935;28;20129;-68
2023/05/15 03:23:26;;;;;;;16.85;9.25;;;;;;;10.64;100.00;100462.47;4991532;28;20046;-67
2023/05/15 03:25:53;;;;;;;18.90;9.07;;;;;;;10.64;100.00;100463.31;4991621;28;20046;-68
2023/05/15 03:28:19;;;;;;;18.17;9.40;;;;;;;10.54;100.00;100462.63;4991168;28;20050;-67
2023/05/15 03:30:46;;;;;;;18.67;9.38;;;;;;;10.55;100.00;100456.28;4990460;28;20061;-68
2023/05/15 03:33:12;;;;;;;21.63;9.68;;;;;;;10.70;100.00;100448.38;4990473;28;20093;-67
2023/05/15 03:35:39;;;;;;;22.85;9.38;;;;;;;10.76;100.00;100449.56;4986588;28;20400;-68
2023/05/15 03:38:06;;;;;;;16.42;9.25;;;;;;;10.71;100.00;100456.25;4991126;28;20052;-75
2023/05/15 03:40:32;;;;;;;25.63;10.13;;;;;;;10.64;100.00;100441.84;4991148;28;20062;-73
2023/05/15 03:42:59;;;;;;;16.73;9.98;;;;;;;10.64;100.00;100435.63;4990973;28;20058;-73
2023/05/15 03:45:25;;;;;;;17.83;10.10;;;;;;;10.61;100.00;100442.16;4989753;28;20050;-73
2023/05/15 03:47:52;;;;;;;22.77;10.10;;;;;;;10.52;100.00;100442.34;4990570;28;20595;-73
2023/05/15 03:50:19;;;;;;;18.17;9.68;;;;;;;10.47;100.00;100434.75;4989492;28;20046;-73
2023/05/15 03:52:46;;;;;;;21.65;10.25;;;;;;;10.53;100.00;100438.66;4990236;28;20046;-72
2023/05/15 03:55:12;;;;;;;19.35;9.85;;;;;;;10.49;100.00;100433.59;4990747;28;20418;-73
2023/05/15 03:57:40;;;;;;;16.73;9.27;;;;;;;10.50;100.00;100424.56;4990865;28;20421;-73
2023/05/15 04:00:11;;;;;;;16.48;9.98;;;;;;;10.53;100.00;100434.13;4990279;28;20052;-74
2023/05/15 04:02:38;;;;;;;18.23;10.30;;;;;;;10.59;100.00;100433.47;4981262;28;20129;-74
2023/05/15 04:05:05;;;;;;;13.98;9.95;;;;;;;10.65;100.00;100434.63;4971567;28;20137;-73
2023/05/15 04:07:33;;;;;;;20.45;10.07;;;;;;;10.68;100.00;100442.34;4971031;28;20043;-72
2023/05/15 04:10:00;;;;;;;19.17;9.95;;;;;;;10.61;100.00;100435.97;4970793;28;20081;-74
2023/05/15 04:12:34;;;;;;;16.95;10.40;;;;;;;10.58;100.00;100437.16;4971402;28;20050;-73
2023/05/15 04:15:22;;;;;;;17.92;10.63;;;;;;;10.61;100.00;100439.50;4971803;28;20093;-73
2023/05/15 04:17:51;;;;;;;17.67;10.50;;;;;;;10.65;100.00;100434.63;4970086;28;20134;-73
2023/05/15 04:20:20;;;;;;;17.30;9.68;;;;;;;10.60;100.00;100437.81;4970793;28;20471;-75
2023/05/15 04:22:47;;;;;;;16.73;9.40;;;;;;;10.63;100.00;100440.16;4971416;28;20542;-74
2023/05/15 04:25:14;;;;;;;16.08;9.77;;;;;;;10.64;100.00;100438.31;4971108;28;20057;-74
2023/05/15 04:27:43;;;;;;;20.10;9.50;;;;;;;10.64;100.00;100435.63;4971034;28;20047;-73
2023/05/15 04:30:10;;;;;;;17.88;10.27;;;;;;;10.71;100.00;100429.44;4971154;28;20051;-74
2023/05/15 04:32:38;;;;;;;17.02;9.30;;;;;;;10.68;100.00;100431.59;4970661;28;20043;-74
2023/05/15 04:35:09;;;;;;;22.23;10.50;;;;;;;10.66;100.00;100429.09;4970349;28;20463;-72
2023/05/15 04:37:37;;;;;;;15.23;9.90;;;;;;;10.78;100.00;100431.44;4970106;28;20049;-75
2023/05/15 04:40:05;;;;;;;25.58;11.10;;;;;;;10.92;100.00;100434.28;4972300;28;20503;-74
2023/05/15 04:42:32;;;;;;;18.02;10.00;;;;;;;10.93;100.00;100425.25;4974072;28;20050;-73
2023/05/15 04:44:58;;;;;;;17.85;9.93;;;;;;;10.99;100.00;100429.06;4975438;28;20057;-73
2023/05/15 04:47:25;;;;;;;15.70;9.68;;;;;;;11.06;100.00;100421.19;4973548;28;20130;-74
2023/05/15 04:49:52;;;;;;;24.63;12.70;;;;;;;11.11;100.00;100429.56;4974060;28;20042;-75
2023/05/15 04:52:18;;;;;;;24.83;12.40;;;;;;;11.23;100.00;100426.34;4973707;28;20057;-74
2023/05/15 04:54:46;;;;;;;22.10;10.95;;;;;;;11.19;100.00;100424.16;4973836;28;20046;-73
2023/05/15 04:57:13;;;;;;;23.75;11.13;;;;;;;11.23;100.00;100422.81;4973511;28;20047;-70
2023/05/15 04:59:39;;;;;;;19.60;11.35;;;;;;;11.25;100.00;100428.88;4973109;28;20051;-69
2023/05/15 05:02:08;;;;;;;17.40;10.77;;;;;;;11.18;100.00;100425.19;4977971;28;20046;-69
2023/05/15 05:04:34;;;;;;;19.55;11.15;;;;;;;11.21;100.00;100425.69;4992487;28;20046;-74
2023/05/15 05:07:04;;;;;;;20.73;11.32;;;;;;;11.23;100.00;100429.00;4992632;28;20050;-72
2023/05/15 05:09:31;;;;;;;23.73;12.32;;;;;;;11.24;100.00;100429.88;4993586;28;20046;-74
2023/05/15 05:12:01;;;;;;;21.08;11.82;;;;;;;11.19;100.00;100424.16;4993860;28;20051;-76
2023/05/15 05:14:27;;;;;;;18.70;10.98;;;;;;;11.39;100.00;100419.25;4991810;28;20072;-75
2023/05/15 05:16:54;;;;;;;23.20;12.02;;;;;;;11.34;100.00;100416.25;4992849;28;20049;-72
2023/05/15 05:19:20;;;;;;;29.38;12.82;;;;;;;11.26;100.00;100406.38;4994299;28;20418;-73
2023/05/15 05:21:47;;;;;;;22.98;12.20;;;;;;;11.26;100.00;100401.00;4993879;28;20060;-73
2023/05/15 05:24:13;;;;;;;21.42;12.07;;;;;;;11.25;100.00;100407.38;4993599;28;20053;-74
2023/05/15 05:26:43;;;;;;;21.85;11.93;;;;;;;11.42;100.00;100398.25;4992988;28;20482;-73
2023/05/15 05:29:09;;;;;;;23.05;12.10;;;;;;;11.47;100.00;100395.03;4993927;28;20043;-74
2023/05/15 05:31:36;;;;;;;21.90;13.18;;;;;;;11.40;100.00;100394.91;4993386;28;20066;-73
2023/05/15 05:34:02;;;;;;;37.58;15.88;;;;;;;11.45;100.00;100395.22;4993098;28;20101;-73
2023/05/15 05:36:29;;;;;;;101.28;25.83;;;;;;;11.53;100.00;100388.97;4988710;28;20057;-74
2023/05/15 05:38:55;;;;;;;75.88;19.50;;;;;;;11.58;100.00;100381.22;5004724;28;20050;-73
2023/05/15 05:41:22;;;;;;;89.78;20.45;;;;;;;11.62;100.00;100387.06;4992219;28;20052;-73
2023/05/15 05:43:48;;;;;;;47.28;16.80;;;;;;;11.82;100.00;100382.97;4993369;28;20048;-73
2023/05/15 05:46:15;;;;;;;28.45;13.95;;;;;;;11.85;100.00;100384.47;4989018;28;20046;-73
2023/05/15 05:48:42;;;;;;;25.98;14.10;;;;;;;11.99;100.00;100382.88;5002074;28;20042;-73
2023/05/15 05:51:08;;;;;;;32.42;14.07;;;;;;;12.01;100.00;100386.25;4985706;28;20495;-76
2023/05/15 05:53:35;;;;;;;21.55;12.88;;;;;;;12.12;100.00;100388.53;4993830;28;20060;-75
2023/05/15 05:56:04;;;;;;;23.48;12.77;;;;;;;12.22;100.00;100383.75;4993073;28;20494;-75
2023/05/15 05:58:31;;;;;;;40.30;14.38;;;;;;;12.26;100.00;100386.91;4992089;28;20046;-73
2023/05/15 06:00:57;;;;;;;58.45;15.80;;;;;;;12.37;100.00;100375.72;4993708;28;20050;-73
2023/05/15 06:03:24;;;;;;;38.13;14.45;;;;;;;12.48;100.00;100380.66;4977440;28;20363;-73
2023/05/15 06:05:52;;;;;;;28.77;14.02;;;;;;;12.57;100.00;100370.69;4973605;28;20051;-73
2023/05/15 06:08:19;;;;;;;31.63;14.85;;;;;;;12.62;100.00;100371.78;4973485;28;20050;-72
2023/05/15 06:10:46;;;;;;;32.45;13.88;;;;;;;12.53;100.00;100366.69;4973003;28;20517;-73
2023/05/15 06:13:13;;;;;;;29.90;12.70;;;;;;;12.61;100.00;100369.28;4972643;28;20125;-73
2023/05/15 06:15:44;;;;;;;31.92;13.45;;;;;;;12.67;100.00;100363.19;4971996;28;20446;-72
2023/05/15 06:18:11;;;;;;;39.58;13.65;;;;;;;12.65;100.00;100362.53;4972936;28;20051;-72
2023/05/15 06:20:37;;;;;;;38.13;13.00;;;;;;;12.91;100.00;100358.63;4972746;28;20043;-73
2023/05/15 06:23:04;;;;;;;20.92;12.60;;;;;;;12.94;100.00;100361.78;4972489;28;20053;-72
2023/05/15 06:25:31;;;;;;;33.78;12.07;;;;;;;13.00;100.00;100355.63;4973750;28;20513;-71
2023/05/15 06:27:59;;;;;;;23.48;11.18;;;;;;;13.08;100.00;100352.03;4973504;28;20051;-74
2023/05/15 06:30:25;;;;;;;25.15;11.18;;;;;;;13.14;100.00;100351.28;4972227;28;20049;-74
2023/05/15 06:32:53;;;;;;;24.75;10.27;;;;;;;13.03;100.00;100354.44;4972311;28;20467;-73
2023/05/15 06:35:19;;;;;;;21.80;10.05;;;;;;;13.16;95.66;100356.50;4972679;28;20055;-74
2023/05/15 06:37:49;;;;;;;30.13;9.95;;;;;;;13.18;95.39;100352.59;4972612;28;20051;-74
2023/05/15 06:40:15;;;;;;;18.13;8.40;;;;;;;13.17;90.70;100356.28;4972521;28;20047;-74
2023/05/15 06:42:42;;;;;;;23.45;9.48;;;;;;;13.19;88.02;100354.25;4972455;28;20048;-74
2023/05/15 06:45:09;;;;;;;18.83;9.23;;;;;;;13.40;87.79;100356.19;4971959;28;20051;-74
2023/05/15 06:47:35;;;;;;;25.00;9.32;;;;;;;13.71;85.30;100349.72;4972290;28;20043;-73
2023/05/15 06:50:03;;;;;;;24.60;9.27;;;;;;;13.91;83.60;100344.56;4972196;28;20050;-74
2023/05/15 06:52:30;;;;;;;22.02;8.32;;;;;;;14.12;82.29;100344.59;4971807;28;20513;-73
2023/05/15 06:54:56;;;;;;;24.20;9.40;;;;;;;14.30;80.54;100338.75;4986535;28;20050;-74
2023/05/15 06:57:23;;;;;;;23.48;8.98;;;;;;;14.32;79.76;100333.13;4991635;28;20049;-73
2023/05/15 06:59:49;;;;;;;16.02;7.70;;;;;;;14.56;75.49;100335.41;4991955;28;20046;-73
2023/05/15 07:02:16;;;;;;;20.17;6.63;;;;;;;14.68;73.93;100330.31;4997310;28;20060;-73
2023/05/15 07:04:42;;;;;;;19.58;7.32;;;;;;;14.87;70.57;100334.22;5011183;28;20048;-74
2023/05/15 07:07:09;;;;;;;17.65;6.47;;;;;;;15.00;69.52;100328.91;5011178;28;20112;-74
2023/05/15 07:09:36;;;;;;;13.70;6.38;;;;;;;15.12;67.30;100327.31;5010699;28;20481;-73
2023/05/15 07:12:02;;;;;;;15.68;6.85;;;;;;;15.30;66.38;100325.94;5011343;28;20052;-71
2023/05/15 07:14:29;;;;;;;17.48;6.63;;;;;;;15.48;65.92;100318.09;5012111;28;20041;-74
2023/05/15 07:16:55;;;;;;;18.60;6.50;;;;;;;15.38;66.91;100325.75;5010830;28;20056;-73
2023/05/15 07:19:22;;;;;;;20.50;6.13;;;;;;;15.71;65.13;100324.06;5010746;28;20050;-73
2023/05/15 07:21:49;;;;;;;15.05;6.10;;;;;;;15.96;63.66;100318.06;5011291;28;20046;-68
2023/05/15 07:24:15;;;;;;;23.35;6.15;;;;;;;16.02;63.78;100321.81;5011696;28;20054;-74
2023/05/15 07:26:42;;;;;;;15.48;6.22;;;;;;;15.50;61.84;100316.06;5012528;28;20053;-74
2023/05/15 07:29:23;;;;;;;26.63;6.45;;;;;;;15.80;61.33;100308.44;5011954;28;20053;-74
2023/05/15 07:31:50;;;;;;;9.60;4.82;;;;;;;15.95;60.08;100305.56;5011462;28;20056;-74
2023/05/15 07:34:16;;;;;;;11.10;5.15;;;;;;;17.06;56.63;100305.75;5011286;28;20054;-73
2023/05/15 07:36:43;;;;;;;14.15;5.28;;;;;;;17.47;54.40;100299.13;5011065;28;20043;-73
2023/05/15 07:39:10;;;;;;;17.40;6.18;;;;;;;17.42;54.59;100307.09;5001421;28;20494;-74
2023/05/15 07:41:36;;;;;;;14.77;4.65;;;;;;;17.31;52.64;100308.56;5011295;28;20046;-73
2023/05/15 07:44:03;;;;;;;9.65;4.88;;;;;;;17.63;51.87;100302.41;5012072;28;20066;-74
2023/05/15 07:46:29;;;;;;;9.05;4.60;;;;;;;17.45;51.26;100293.09;5010413;28;20046;-75
2023/05/15 07:48:56;;;;;;;12.32;5.00;;;;;;;17.30;50.66;100301.50;5011198;28;20053;-73
2023/05/15 07:51:22;;;;;;;9.95;5.30;;;;;;;17.12;50.82;100301.31;5011057;28;20061;-74
2023/05/15 07:53:49;;;;;;;14.25;5.50;;;;;;;16.52;51.57;100298.75;5010438;28;20136;-73
2023/05/15 07:56:16;;;;;;;12.52;5.57;;;;;;;16.12;52.10;100295.16;5010018;28;20433;-74
2023/05/15 07:58:42;;;;;;;15.43;5.70;;;;;;;15.70;53.05;100287.19;5010731;28;20387;-74
2023/05/15 08:01:09;;;;;;;17.25;5.43;;;;;;;15.65;53.39;100289.69;5010186;28;20052;-74
2023/05/15 08:03:35;;;;;;;11.63;5.25;;;;;;;15.63;53.96;100286.34;4976180;28;20057;-73
2023/05/15 08:06:02;;;;;;;15.82;5.93;;;;;;;15.69;54.70;100287.41;4991409;28;20043;-74
2023/05/15 08:08:29;;;;;;;18.42;5.50;;;;;;;15.67;55.00;100284.06;4990297;28;20458;-74
2023/05/15 08:10:56;;;;;;;12.02;5.35;;;;;;;15.63;54.45;100283.66;4989533;28;20073;-73
2023/05/15 08:13:22;;;;;;;15.60;5.88;;;;;;;15.68;54.72;100281.19;4990006;28;20056;-74
2023/05/15 08:15:49;;;;;;;10.75;4.95;;;;;;;15.75;54.78;100280.38;4993305;28;20042;-72
2023/05/15 08:18:15;;;;;;;14.90;5.32;;;;;;;15.51;55.28;100279.03;4976896;28;20101;-72
2023/05/15 08:20:42;;;;;;;11.75;5.53;;;;;;;15.51;56.38;100276.31;4993537;28;20050;-74
2023/05/15 08:23:08;;;;;;;11.43;4.57;;;;;;;15.86;55.64;100268.94;4994710;28;20081;-74
2023/05/15 08:25:35;;;;;;;18.42;4.80;;;;;;;16.02;55.91;100265.84;4994509;28;20125;-73
2023/05/15 08:28:03;;;;;;;13.35;4.45;;;;;;;15.70;56.88;100267.44;4993109;28;20134;-74
2023/05/15 08:30:29;;;;;;;14.25;4.70;;;;;;;15.81;56.19;100257.88;4993004;28;20108;-70
2023/05/15 08:32:56;;;;;;;12.60;5.38;;;;;;;15.87;56.27;100263.31;4974215;28;20476;-70
2023/05/15 08:35:23;;;;;;;14.00;4.60;;;;;;;15.86;56.64;100258.94;4974218;28;20342;-71
2023/05/15 08:37:50;;;;;;;11.25;5.10;;;;;;;15.99;56.12;100255.44;4972800;28;20051;-70
2023/05/15 08:40:16;;;;;;;13.93;4.75;;;;;;;16.06;55.66;100253.56;4973235;28;20054;-71
2023/05/15 08:42:53;;;;;;;13.10;4.68;;;;;;;16.25;55.68;100251.88;4973782;28;20038;-71
2023/05/15 08:45:20;;;;;;;;;;;;;;;16.44;53.67;100250.22;4974660;28;20057;-71
2023/05/15 08:47:46;;;;;;;11.27;4.10;;;;;;;16.52;52.27;100243.78;4972787;28;20314;-71
2023/05/15 08:50:15;;;;;;;12.45;4.18;;;;;;;16.39;52.52;100245.41;4973379;28;20070;-71
2023/05/15 08:52:47;;;;;;;8.93;4.72;;;;;;;16.49;52.90;100239.56;4973341;28;20099;-70
2023/05/15 08:55:14;;;;;;;;;;;;;;;16.57;53.54;100239.38;4973771;28;20079;-71
2023/05/15 08:57:41;;;;;;;20.83;5.78;;;;;;;16.56;57.90;100234.19;4973746;28;19922;-72
2023/05/15 09:00:10;;;;;;;18.08;4.80;;;;;;;16.14;63.36;100230.88;4973117;28;20055;-70
2023/05/15 09:02:38;;;;;;;9.40;3.80;;;;;;;15.92;63.51;100238.38;4984532;28;20056;-71
2023/05/15 09:05:05;;;;;;;16.73;4.55;;;;;;;15.81;62.92;100233.53;5012093;28;20056;-72
2023/05/15 09:07:32;;;;;;;9.85;4.10;;;;;;;15.81;62.02;100228.13;5011979;28;20524;-71
2023/05/15 09:10:01;;;;;;;15.52;4.03;;;;;;;15.58;73.80;100225.81;5011414;28;20046;-72
2023/05/15 09:12:32;;;;;;;13.80;4.28;;;;;;;15.56;71.66;100230.56;5011511;28;20425;-72
2023/05/15 09:15:08;;;;;;;11.00;4.47;;;;;;;15.64;64.55;100233.97;5011465;28;20124;-70
2023/05/15 09:17:35;;;;;;;15.93;5.03;;;;;;;15.70;71.21;100226.88;5011882;28;20048;-73
2023/05/15 09:20:04;;;;;;;9.18;3.70;;;;;;;15.71;73.42;100226.69;5012050;28;20054;-74
2023/05/15 09:22:35;;;;;;;8.27;4.15;;;;;;;15.76;71.64;100222.53;5011542;28;20059;-72
2023/05/15 09:25:03;;;;;;;6.93;4.40;;;;;;;15.83;66.95;100224.19;5012262;28;20414;-71
2023/05/15 09:27:39;;;;;;;7.68;4.18;;;;;;;15.80;69.99;100221.06;5011101;28;20060;-73
2023/05/15 09:30:09;;;;;;;10.15;3.78;;;;;;;15.91;69.79;100220.44;5010963;28;20414;-71
2023/05/15 09:32:37;;;;;;;8.93;3.88;;;;;;;15.98;65.74;100221.28;5006218;28;20045;-72
2023/05/15 09:35:23;;;;;;;11.88;4.13;;;;;;;16.16;64.40;100224.22;5008995;28;20045;-73
2023/05/15 09:37:59;;;;;;;11.18;3.80;;;;;;;16.30;63.24;100216.91;5010100;28;20050;-71
2023/05/15 09:40:30;;;;;;;12.35;4.05;;;;;;;16.27;64.53;100216.50;5010225;28;20050;-72
2023/05/15 09:42:57;;;;;;;17.75;4.43;;;;;;;16.36;63.82;100212.50;5009547;28;20069;-71
2023/05/15 09:45:25;;;;;;;14.35;4.88;;;;;;;16.54;60.04;100215.44;5003318;28;20625;-75
2023/05/15 09:47:52;;;;;;;8.00;4.15;;;;;;;16.56;63.45;100218.75;5010058;28;20422;-75
2023/05/15 09:50:30;;;;;;;11.02;4.53;;;;;;;16.45;63.08;100211.25;5010044;28;20053;-75
2023/05/15 09:52:58;;;;;;;15.82;5.00;;;;;;;16.62;61.75;100214.38;5009698;28;20512;-74
2023/05/15 09:55:26;;;;;;;10.00;4.30;;;;;;;16.71;62.70;100206.84;5011036;28;20084;-73
2023/05/15 09:58:13;;;;;;;7.25;3.70;;;;;;;16.81;61.41;100201.81;5010035;28;20132;-75
2023/05/15 10:00:41;;;;;;;10.80;4.47;;;;;;;16.75;61.50;100199.94;5009647;28;20046;-75
2023/05/15 10:03:15;;;;;;;10.43;5.07;;;;;;;16.91;58.54;100194.06;5010940;28;20049;-75
2023/05/15 10:05:42;;;;;;;9.05;4.03;;;;;;;17.17;57.81;100192.28;5010216;28;20048;-74
2023/05/15 10:08:10;;;;;;;15.63;3.80;;;;;;;17.00;58.66;100190.06;4995374;28;20496;-73
2023/05/15 10:10:37;;;;;;;7.45;3.85;;;;;;;17.09;58.29;100190.63;4970851;28;20046;-73
2023/05/15 10:13:06;;;;;;;9.20;3.95;;;;;;;17.12;57.68;100193.75;4970780;28;20474;-75
2023/05/15 10:15:34;;;;;;;16.98;3.67;;;;;;;17.14;56.56;100191.66;4971086;28;20446;-74
2023/05/15 10:18:03;;;;;;;9.63;3.40;;;;;;;17.30;57.33;100194.91;4969904;28;20094;-77
2023/05/15 10:20:34;;;;;;;11.43;4.50;;;;;;;17.90;53.66;100191.81;4971678;28;20055;-76
2023/05/15 10:23:03;;;;;;;13.43;6.07;;;;;;;18.08;54.09;100184.53;4972421;28;20397;-76
2023/05/15 10:25:32;;;;;;;9.35;3.83;;;;;;;18.11;55.66;100186.00;4970949;28;20134;-76
2023/05/15 10:28:00;;;;;;;10.48;4.32;;;;;;;17.95;54.98;100189.25;4972233;28;20046;-78
2023/05/15 10:30:27;;;;;;;19.42;4.43;;;;;;;18.24;53.29;100188.63;4971246;28;20054;-78
2023/05/15 10:32:55;;;;;;;15.55;3.78;;;;;;;18.20;54.56;100181.13;4930175;28;1190977;-78
2023/05/15 10:35:22;;;;;;;9.77;3.33;;;;;;;18.24;53.74;100182.38;4961004;28;20575;-77
2023/05/15 10:37:49;;;;;;;12.23;3.90;;;;;;;18.02;54.26;100185.44;4971766;28;20047;-75
2023/05/15 10:40:16;;;;;;;13.13;3.88;;;;;;;17.98;53.44;100184.22;4972074;28;20046;-76
2023/05/15 10:42:46;;;;;;;15.00;4.38;;;;;;;18.08;52.86;100179.13;4972211;28;20058;-78
2023/05/15 10:45:12;;;;;;;11.68;4.32;;;;;;;18.15;53.37;100183.69;4964520;28;20065;-76
2023/05/15 10:47:41;;;;;;;12.82;3.60;;;;;;;17.82;55.18;100174.75;4972167;28;20047;-77
2023/05/15 10:50:10;;;;;;;10.63;4.30;;;;;;;17.68;54.55;100177.78;4972083;28;20121;-77
2023/05/15 10:52:38;;;;;;;8.88;4.03;;;;;;;17.20;53.38;100176.41;4972074;28;20089;-76
2023/05/15 10:55:08;;;;;;;11.98;3.90;;;;;;;17.19;54.20;100180.16;4971221;28;20043;-74
2023/05/15 10:57:35;;;;;;;8.05;3.72;;;;;;;17.24;55.85;100177.63;4971371;28;20046;-74
2023/05/15 11:00:04;;;;;;;14.50;4.05;;;;;;;17.07;56.17;100162.94;4972075;28;20407;-75
2023/05/15 11:02:37;;;;;;;14.40;4.18;;;;;;;16.78;54.04;100167.00;4988718;28;20132;-75
2023/05/15 11:05:04;;;;;;;8.07;3.67;;;;;;;16.60;56.95;100167.72;5009644;28;20046;-74
2023/05/15 11:07:31;;;;;;;7.70;3.47;;;;;;;16.70;53.15;100159.97;5010436;28;20049;-74
2023/05/15 11:09:58;;;;;;;9.65;3.47;;;;;;;16.86;56.14;100158.66;5010058;28;20041;-75
2023/05/15 11:12:24;;;;;;;7.72;3.28;;;;;;;16.84;56.38;100160.75;5009832;28;20056;-74
2023/05/15 11:14:51;;;;;;;6.07;3.83;;;;;;;16.95;54.20;100159.22;5009923;28;20041;-74
2023/05/15 11:17:18;;;;;;;11.40;4.10;;;;;;;16.85;56.71;100148.84;5009951;28;20529;-73
2023/05/15 11:19:50;;;;;;;12.23;3.60;;;;;;;16.87;56.20;100144.06;5011149;28;20050;-74
2023/05/15 11:22:27;;;;;;;16.17;3.80;;;;;;;17.05;54.42;100141.44;5010518;28;20054;-75